< Cyclone 201006 2010 Season Cyclone 201009 >
Cyclone 201007 (Olga)
General InformationTrack Information on Google MapsDetailed Wind InformationList of All Images || ResourceGoogle EarthGE AnimationAtom FeedGeoJSON
Detalied Best Track (Time Zone = UTC)
Year Month Day Hour Lat. Long. Pressure (hPa) Wind (kt) Class Image Chart
2010 1 21 18 -11.8 159.9 1004 20 2 Image --
2010 1 22 00 -13.1 157.3 1006 25 2 Image --
2010 1 22 06 -14.4 155.2 1004 25 2 Image --
2010 1 22 12 -15.6 153.6 1001 30 2 Image --
2010 1 22 18 -16.3 151.9 996 35 3 Image --
2010 1 23 00 -16.2 150.4 992 35 3 Image --
2010 1 23 06 -16.4 149.3 990 40 3 Image --
2010 1 23 12 -16.1 148.3 986 50 4 Image --
2010 1 23 18 -15.7 147.1 983 50 4 Image --
2010 1 24 00 -15.9 146.6 983 50 4 Image --
2010 1 24 06 -16.2 146.4 990 40 3 Image --
2010 1 24 12 -16.9 146.3 997 30 2 Image --
2010 1 24 18 -17.5 146.0 997 30 2 Image --
2010 1 25 00 -18.3 144.0 1007 20 2 Image --
2010 1 25 06 -18.1 142.3 1010 15 2 Image --
2010 1 25 12 -18.2 141.5 1009 15 2 Image --
2010 1 25 18 -18.1 140.8 1005 15 2 Image --
2010 1 26 00 -17.9 140.0 1002 20 2 Image --
2010 1 26 06 -17.4 138.8 998 25 2 Image --
2010 1 26 12 -16.5 138.1 999 25 2 Image --
2010 1 26 18 -16.1 137.7 996 25 2 Image --
2010 1 27 00 -16.0 137.4 999 25 2 Image --
2010 1 27 06 -16.2 137.0 996 30 2 Image --
2010 1 27 12 -16.0 136.5 995 30 2 Image --
2010 1 27 18 -15.9 136.3 994 30 2 Image --
2010 1 28 00 -15.9 136.0 996 30 2 Image --
2010 1 28 06 -16.1 135.7 994 30 2 Image --
2010 1 28 12 -16.0 135.8 993 30 2 Image --
2010 1 28 18 -16.0 136.0 994 30 2 Image --
2010 1 29 00 -15.8 136.5 995 30 2 Image --
2010 1 29 06 -15.8 137.4 991 30 2 Image --
2010 1 29 11 -16.0 138.7 991 35 3 Image --
2010 1 29 12 -16.1 139.0 992 35 3 Image --
2010 1 29 18 -17.5 140.4 991 35 3 Image --
2010 1 29 21 -17.9 141.0 985 35 3 Image --
2010 1 30 00 -18.3 141.3 987 30 2 Image --
< Cyclone 201006 2010 Season Cyclone 201009 >

Help